createdAt,value
2023-04-06T00:00:40.501Z,94768.72
2023-04-06T00:03:07.554Z,94744.69
2023-04-06T00:05:34.559Z,94730.97
2023-04-06T00:08:01.490Z,94688.31
2023-04-06T00:10:29.492Z,94748.47
2023-04-06T00:12:57.663Z,94745.75
2023-04-06T00:15:24.660Z,94742.34
2023-04-06T00:17:51.323Z,94746.81
2023-04-06T00:20:18.596Z,94738.72
2023-04-06T00:22:46.386Z,94717.81
2023-04-06T00:25:13.055Z,94724.25
2023-04-06T00:27:40.042Z,94740.66
2023-04-06T00:30:07.369Z,94736.00
2023-04-06T00:32:34.398Z,94727.25
2023-04-06T00:35:01.150Z,94726.84
2023-04-06T00:37:27.817Z,94715.38
2023-04-06T00:39:54.563Z,94713.91
2023-04-06T00:42:26.727Z,94703.00
2023-04-06T00:44:59.005Z,94712.44
2023-04-06T00:47:28.663Z,94710.94
2023-04-06T00:49:55.890Z,94710.97
2023-04-06T00:52:22.587Z,94710.97
2023-04-06T00:54:50.624Z,94715.50
2023-04-06T00:57:18.383Z,94700.63
2023-04-06T00:59:45.605Z,94686.94
2023-04-06T01:02:12.367Z,94710.56
2023-04-06T01:04:39.181Z,94678.59
2023-04-06T01:07:05.877Z,94695.59
2023-04-06T01:09:32.464Z,94677.75
2023-04-06T01:11:59.613Z,94706.28
2023-04-06T01:14:26.748Z,94689.59
2023-04-06T01:16:53.688Z,94700.94
2023-04-06T01:19:22.034Z,94703.25
2023-04-06T01:21:50.493Z,94696.28
2023-04-06T01:24:17.480Z,94697.69
2023-04-06T01:26:45.036Z,94692.75
2023-04-06T01:29:11.850Z,94619.00
2023-04-06T01:31:39.185Z,94695.47
2023-04-06T01:34:06.066Z,94690.50
2023-04-06T01:36:33.164Z,94685.16
2023-04-06T01:38:59.939Z,94673.38
2023-04-06T01:41:27.364Z,94686.66
2023-04-06T01:43:55.662Z,94646.72
2023-04-06T01:46:22.584Z,94684.31
2023-04-06T01:48:49.971Z,94676.38
2023-04-06T01:51:16.599Z,94679.91
2023-04-06T01:53:43.693Z,94651.75
2023-04-06T01:56:10.794Z,94677.13
2023-04-06T01:58:37.477Z,94646.72
2023-04-06T02:01:04.359Z,94674.16
2023-04-06T02:03:31.853Z,94669.84
2023-04-06T02:05:58.655Z,94662.28
2023-04-06T02:08:25.530Z,94666.16
2023-04-06T02:10:52.475Z,94663.88
2023-04-06T02:13:19.307Z,94662.72
2023-04-06T02:15:46.036Z,94673.09
2023-04-06T02:18:12.824Z,94659.69
2023-04-06T02:20:39.571Z,94675.75
2023-04-06T02:23:06.445Z,94630.03
2023-04-06T02:25:33.477Z,94632.31
2023-04-06T02:28:00.614Z,94666.94
2023-04-06T02:30:27.719Z,94644.50
2023-04-06T02:32:54.427Z,94653.59
2023-04-06T02:35:21.417Z,94649.84
2023-04-06T02:37:48.168Z,94667.72
2023-04-06T02:40:15.634Z,94668.88
2023-04-06T02:42:42.300Z,94672.59
2023-04-06T02:45:09.520Z,94672.22
2023-04-06T02:47:36.268Z,94672.19
2023-04-06T02:50:03.388Z,94668.31
2023-04-06T02:52:30.057Z,94666.41
2023-04-06T02:54:56.683Z,94667.47
2023-04-06T02:57:23.476Z,94660.53
2023-04-06T02:59:50.110Z,94667.84
2023-04-06T03:02:16.950Z,94654.13
2023-04-06T03:04:44.274Z,94660.94
2023-04-06T03:07:11.060Z,94656.22
2023-04-06T03:09:40.957Z,94674.91
2023-04-06T03:12:09.941Z,94660.00
2023-04-06T03:14:37.056Z,94672.25
2023-04-06T03:17:03.897Z,94648.63
2023-04-06T03:19:30.605Z,94673.59
2023-04-06T03:21:57.302Z,94664.78
2023-04-06T03:24:24.105Z,94650.75
2023-04-06T03:26:50.933Z,94671.19
2023-04-06T03:29:17.561Z,94665.50
2023-04-06T03:31:44.215Z,94655.22
2023-04-06T03:34:11.191Z,94654.47
2023-04-06T03:36:37.864Z,94662.16
2023-04-06T03:39:04.826Z,94655.69
2023-04-06T03:41:31.597Z,94659.47
2023-04-06T03:43:58.287Z,94651.63
2023-04-06T03:46:24.992Z,94657.31
2023-04-06T03:48:51.592Z,94654.56
2023-04-06T03:51:18.375Z,94660.41
2023-04-06T03:53:45.110Z,94646.63
2023-04-06T03:56:11.845Z,94651.19
2023-04-06T03:58:38.540Z,94643.59
2023-04-06T04:01:05.311Z,94663.72
2023-04-06T04:03:32.387Z,94649.75
2023-04-06T04:05:59.079Z,94655.75
2023-04-06T04:08:26.642Z,94649.03
2023-04-06T04:10:53.253Z,94623.13
2023-04-06T04:13:20.489Z,94660.00
2023-04-06T04:15:48.647Z,94626.44
2023-04-06T04:18:15.848Z,94644.34
2023-04-06T04:20:42.654Z,94651.50
2023-04-06T04:23:09.283Z,94633.31
2023-04-06T04:25:36.033Z,94662.22
2023-04-06T04:28:02.999Z,94651.03
2023-04-06T04:30:29.871Z,94654.19
2023-04-06T04:32:56.639Z,94651.78
2023-04-06T04:35:23.433Z,94653.13
2023-04-06T04:37:50.203Z,94652.53
2023-04-06T04:40:17.757Z,94635.44
2023-04-06T04:42:44.581Z,94637.19
2023-04-06T04:45:11.690Z,94659.25
2023-04-06T04:47:38.383Z,94666.94
2023-04-06T04:50:05.937Z,94655.47
2023-04-06T04:52:32.913Z,94656.22
2023-04-06T04:54:59.658Z,94657.31
2023-04-06T04:57:26.504Z,94643.94
2023-04-06T04:59:53.098Z,94660.31
2023-04-06T05:02:20.051Z,94662.91
2023-04-06T05:04:46.816Z,94661.03
2023-04-06T05:07:13.683Z,94638.91
2023-04-06T05:09:40.556Z,94659.13
2023-04-06T05:12:07.510Z,94629.44
2023-04-06T05:14:34.674Z,94638.63
2023-04-06T05:17:01.781Z,94663.19
2023-04-06T05:19:28.528Z,94660.91
2023-04-06T05:21:55.405Z,94643.09
2023-04-06T05:24:22.259Z,94641.13
2023-04-06T05:26:49.868Z,94625.44
2023-04-06T05:29:17.957Z,94652.78
2023-04-06T05:31:44.610Z,94663.53
2023-04-06T05:34:11.672Z,94657.00
2023-04-06T05:36:38.278Z,94661.13
2023-04-06T05:39:04.824Z,94641.31
2023-04-06T05:41:31.700Z,94646.53
2023-04-06T05:43:58.455Z,94647.25
2023-04-06T05:46:25.245Z,94658.16
2023-04-06T05:48:51.942Z,94645.84
2023-04-06T05:51:18.570Z,94649.19
2023-04-06T05:53:45.504Z,94660.63
2023-04-06T05:56:12.359Z,94634.00
2023-04-06T05:58:39.097Z,94662.13
2023-04-06T06:01:05.928Z,94637.38
2023-04-06T06:03:32.705Z,94644.94
2023-04-06T06:06:05.314Z,94642.59
2023-04-06T06:08:32.445Z,94635.47
2023-04-06T06:10:59.607Z,94620.28
2023-04-06T06:13:26.359Z,94643.00
2023-04-06T06:15:53.438Z,94619.56
2023-04-06T06:18:20.426Z,94624.47
2023-04-06T06:20:47.095Z,94619.75
2023-04-06T06:23:14.099Z,94634.00
2023-04-06T06:25:40.992Z,94645.59
2023-04-06T06:28:07.830Z,94651.81
2023-04-06T06:30:34.782Z,94641.00
2023-04-06T06:33:01.772Z,94638.16
2023-04-06T06:35:28.703Z,94632.44
2023-04-06T06:37:55.692Z,94649.19
2023-04-06T06:40:25.057Z,94652.31
2023-04-06T06:42:52.595Z,94557.31
2023-04-06T06:45:20.043Z,94656.25
2023-04-06T06:47:47.453Z,94640.06
2023-04-06T06:50:14.415Z,94630.06
2023-04-06T06:52:41.474Z,94659.84
2023-04-06T06:55:09.425Z,94652.06
2023-04-06T06:57:36.218Z,94654.81
2023-04-06T07:00:03.138Z,94646.47
2023-04-06T07:02:30.083Z,94651.63
2023-04-06T07:04:56.907Z,94665.75
2023-04-06T07:07:23.875Z,94658.66
2023-04-06T07:09:50.621Z,94657.94
2023-04-06T07:12:17.667Z,94648.88
2023-04-06T07:14:44.497Z,94653.94
2023-04-06T07:17:11.370Z,94650.53
2023-04-06T07:19:38.274Z,94631.06
2023-04-06T07:22:05.768Z,94658.09
2023-04-06T07:24:32.753Z,94652.88
2023-04-06T07:27:02.985Z,94658.75
2023-04-06T07:29:29.837Z,94619.28
2023-04-06T07:31:56.495Z,94650.69
2023-04-06T07:34:23.812Z,94656.28
2023-04-06T07:36:50.818Z,94651.22
2023-04-06T07:39:17.503Z,94645.09
2023-04-06T07:41:44.077Z,94645.31
2023-04-06T07:44:10.913Z,94654.13
2023-04-06T07:46:37.896Z,94644.19
2023-04-06T07:49:04.844Z,94642.44
2023-04-06T07:51:32.126Z,94645.59
2023-04-06T07:53:58.895Z,94663.25
2023-04-06T07:56:26.140Z,94645.78
2023-04-06T07:58:54.360Z,94643.50
2023-04-06T08:01:21.281Z,94645.56
2023-04-06T08:03:48.365Z,94657.84
2023-04-06T08:06:15.452Z,94648.28
2023-04-06T08:08:43.206Z,94631.47
2023-04-06T08:11:10.545Z,94646.53
2023-04-06T08:13:37.454Z,94647.91
2023-04-06T08:16:04.442Z,94636.03
2023-04-06T08:18:31.166Z,94634.19
2023-04-06T08:20:58.099Z,94612.81
2023-04-06T08:23:25.228Z,94645.22
2023-04-06T08:25:54.336Z,94632.38
2023-04-06T08:28:22.391Z,94647.06
2023-04-06T08:30:49.427Z,94644.84
2023-04-06T08:33:16.686Z,94655.13
2023-04-06T08:35:43.588Z,94650.16
2023-04-06T08:38:10.454Z,94652.94
2023-04-06T08:40:38.749Z,94644.81
2023-04-06T08:43:10.217Z,94646.50
2023-04-06T08:45:37.077Z,94628.75
2023-04-06T08:48:04.889Z,94644.09
2023-04-06T08:50:33.416Z,94652.44
2023-04-06T08:53:00.931Z,94653.44
2023-04-06T08:55:28.048Z,94636.66
2023-04-06T08:57:56.784Z,94649.13
2023-04-06T09:00:24.262Z,94637.97
2023-04-06T09:02:54.573Z,94645.00
2023-04-06T09:05:22.832Z,94644.94
2023-04-06T09:07:49.492Z,94611.25
2023-04-06T09:10:18.099Z,94643.97
2023-04-06T09:12:45.325Z,94637.88
2023-04-06T09:15:24.672Z,94631.81
2023-04-06T09:17:53.003Z,94619.16
2023-04-06T09:20:27.385Z,94645.59
2023-04-06T09:22:54.076Z,94625.25
2023-04-06T09:25:22.420Z,94639.28
2023-04-06T09:27:49.776Z,94628.03
2023-04-06T09:30:17.868Z,94638.41
2023-04-06T09:32:49.038Z,94631.50
2023-04-06T09:35:16.374Z,94534.22
2023-04-06T09:37:47.160Z,94634.06
2023-04-06T09:40:14.746Z,94631.09
2023-04-06T09:42:42.924Z,94597.09
2023-04-06T09:45:10.056Z,94618.06
2023-04-06T09:47:38.349Z,94630.19
2023-04-06T09:50:05.964Z,94620.16
2023-04-06T09:52:47.644Z,94624.44
2023-04-06T09:55:23.747Z,94625.72
2023-04-06T09:57:58.491Z,94613.38
2023-04-06T10:00:28.258Z,94624.28
2023-04-06T10:03:20.101Z,94628.34
2023-04-06T10:06:01.124Z,94632.81
2023-04-06T10:08:32.526Z,94631.47
2023-04-06T10:11:00.071Z,94625.22
2023-04-06T10:13:26.840Z,94629.09
2023-04-06T10:15:53.983Z,94628.66
2023-04-06T10:18:23.975Z,94618.91
2023-04-06T10:20:56.072Z,94631.25
2023-04-06T10:23:31.675Z,94623.13
2023-04-06T10:26:00.851Z,94623.66
2023-04-06T10:28:36.875Z,94605.94
2023-04-06T10:31:07.531Z,94610.41
2023-04-06T10:33:34.840Z,94620.72
2023-04-06T10:36:14.950Z,94601.94
2023-04-06T10:38:43.312Z,94609.13
2023-04-06T10:41:12.812Z,94600.56
2023-04-06T10:43:41.370Z,94604.81
2023-04-06T10:46:09.940Z,94605.16
2023-04-06T10:48:41.216Z,94597.00
2023-04-06T10:51:13.304Z,94604.06
2023-04-06T10:53:46.713Z,94618.69
2023-04-06T10:56:16.437Z,94598.78
2023-04-06T10:58:50.472Z,94535.22
2023-04-06T11:01:18.810Z,94597.78
2023-04-06T11:03:47.348Z,94583.97
2023-04-06T11:06:24.452Z,94530.53
2023-04-06T11:08:52.591Z,94584.84
2023-04-06T11:11:23.185Z,94589.88
2023-04-06T11:13:53.090Z,94585.53
2023-04-06T11:16:25.982Z,94550.53
2023-04-06T11:18:54.612Z,94584.34
2023-04-06T11:21:33.709Z,94580.44
2023-04-06T11:24:18.390Z,94569.53
2023-04-06T11:26:49.663Z,94553.81
2023-04-06T11:29:18.585Z,94575.31
2023-04-06T11:31:53.914Z,94571.75
2023-04-06T11:34:23.004Z,94550.19
2023-04-06T11:36:55.540Z,94570.56
2023-04-06T11:39:27.467Z,94559.09
2023-04-06T11:41:58.396Z,94564.72
2023-04-06T11:44:51.118Z,94561.84
2023-04-06T11:47:17.825Z,94559.97
2023-04-06T11:49:51.390Z,94560.38
2023-04-06T11:52:20.986Z,94557.19
2023-04-06T11:54:49.653Z,94526.16
2023-04-06T11:57:17.865Z,94552.66
2023-04-06T11:59:45.548Z,94550.75
2023-04-06T12:02:12.302Z,94541.34
2023-04-06T12:04:39.326Z,94554.53
2023-04-06T12:07:06.220Z,94550.84
2023-04-06T12:09:33.627Z,94545.16
2023-04-06T12:12:00.328Z,94540.72
2023-04-06T12:14:27.114Z,94538.69
2023-04-06T12:16:53.837Z,94541.09
2023-04-06T12:19:20.450Z,94532.53
2023-04-06T12:21:47.581Z,94507.16
2023-04-06T12:24:14.248Z,94524.19
2023-04-06T12:26:42.521Z,94532.38
2023-04-06T12:29:09.451Z,94540.50
2023-04-06T12:31:37.156Z,94533.25
2023-04-06T12:34:04.472Z,94540.31
2023-04-06T12:36:32.494Z,94533.03
2023-04-06T12:39:00.260Z,94522.97
2023-04-06T12:41:27.302Z,94535.72
2023-04-06T12:43:54.019Z,94522.38
2023-04-06T12:46:21.773Z,94531.06
2023-04-06T12:48:48.972Z,94529.81
2023-04-06T12:51:15.825Z,94524.09
2023-04-06T12:53:42.555Z,94492.88
2023-04-06T12:56:18.441Z,94516.41
2023-04-06T12:58:46.507Z,94526.59
2023-04-06T13:01:14.878Z,94516.59
2023-04-06T13:03:42.654Z,94509.50
2023-04-06T13:06:09.994Z,94518.75
2023-04-06T13:08:40.226Z,94517.03
2023-04-06T13:11:10.067Z,94505.47
2023-04-06T13:13:38.317Z,94511.25
2023-04-06T13:16:07.876Z,94516.78
2023-04-06T13:18:36.488Z,94511.63
2023-04-06T13:21:03.380Z,94509.44
2023-04-06T13:23:30.826Z,94497.28
2023-04-06T13:26:03.520Z,94509.31
2023-04-06T13:28:31.038Z,94508.09
2023-04-06T13:31:00.088Z,94486.91
2023-04-06T13:33:27.646Z,94497.53
2023-04-06T13:35:54.381Z,94502.94
2023-04-06T13:38:21.360Z,94508.34
2023-04-06T13:40:48.018Z,94505.19
2023-04-06T13:43:15.071Z,94499.28
2023-04-06T13:45:41.933Z,94513.06
2023-04-06T13:48:09.043Z,94494.34
2023-04-06T13:50:36.248Z,94505.56
2023-04-06T13:53:02.886Z,94505.47
2023-04-06T13:55:35.540Z,94504.69
2023-04-06T13:58:02.311Z,94510.84
2023-04-06T14:00:29.004Z,94493.09
2023-04-06T14:02:56.476Z,94505.69
2023-04-06T14:05:24.706Z,94499.03
2023-04-06T14:07:51.914Z,94488.31
2023-04-06T14:10:18.740Z,94511.72
2023-04-06T14:12:45.781Z,94506.13
2023-04-06T14:15:13.490Z,94509.06
2023-04-06T14:17:40.970Z,94505.03
2023-04-06T14:20:08.501Z,94501.00
2023-04-06T14:22:35.356Z,94496.94
2023-04-06T14:25:02.118Z,94504.06
2023-04-06T14:27:28.927Z,94509.81
2023-04-06T14:29:56.016Z,94482.06
2023-04-06T14:32:22.891Z,94504.72
2023-04-06T14:34:49.690Z,94502.09
2023-04-06T14:37:17.554Z,94505.63
2023-04-06T14:39:44.765Z,94517.16
2023-04-06T14:42:11.482Z,94505.06
2023-04-06T14:44:39.702Z,94518.91
2023-04-06T14:47:06.773Z,94489.22
2023-04-06T14:49:33.523Z,94510.38
2023-04-06T14:52:00.701Z,94496.44
2023-04-06T14:54:27.387Z,94491.38
2023-04-06T14:56:54.046Z,94510.81
2023-04-06T14:59:20.745Z,94489.22
2023-04-06T15:01:47.716Z,94530.00
2023-04-06T15:04:15.276Z,94514.38
2023-04-06T15:06:42.195Z,94526.69
2023-04-06T15:09:09.151Z,94529.03
2023-04-06T15:11:35.993Z,94537.34
2023-04-06T15:14:03.031Z,94514.47
2023-04-06T15:16:33.560Z,94489.81
2023-04-06T15:19:01.534Z,94526.06
2023-04-06T15:21:28.409Z,94521.72
2023-04-06T15:23:55.953Z,94536.19
2023-04-06T15:26:22.692Z,94538.69
2023-04-06T15:28:49.625Z,94527.91
2023-04-06T15:31:32.948Z,94541.63
2023-04-06T15:34:03.018Z,94548.44
2023-04-06T15:36:30.922Z,94538.31
2023-04-06T15:39:01.773Z,94553.31
2023-04-06T15:41:28.581Z,94548.78
2023-04-06T15:43:55.701Z,94557.34
2023-04-06T15:46:23.531Z,94552.28
2023-04-06T15:48:50.313Z,94517.66
2023-04-06T15:51:17.904Z,94554.25
2023-04-06T15:53:45.525Z,94554.50
2023-04-06T15:56:14.415Z,94552.47
2023-04-06T15:58:41.454Z,94543.31
2023-04-06T16:01:19.256Z,94553.34
2023-04-06T16:03:47.137Z,94543.59
2023-04-06T16:06:13.935Z,94565.84
2023-04-06T16:08:41.981Z,94564.97
2023-04-06T16:11:09.889Z,94570.38
2023-04-06T16:13:37.111Z,94572.47
2023-04-06T16:16:05.051Z,94570.22
2023-04-06T16:18:33.077Z,94573.22
2023-04-06T16:21:01.036Z,94564.81
2023-04-06T16:23:27.858Z,94571.81
2023-04-06T16:25:54.535Z,94571.72
2023-04-06T16:28:23.372Z,94568.78
2023-04-06T16:30:49.932Z,94564.97
2023-04-06T16:33:19.205Z,94560.63
2023-04-06T16:35:47.205Z,94569.28
2023-04-06T16:38:14.271Z,94568.28
2023-04-06T16:40:41.403Z,94568.19
2023-04-06T16:43:09.806Z,94585.44
2023-04-06T16:45:37.045Z,94578.97
2023-04-06T16:48:03.712Z,94567.50
2023-04-06T16:50:30.540Z,94588.88
2023-04-06T16:52:57.267Z,94590.97
2023-04-06T16:55:23.893Z,94585.19
2023-04-06T16:57:50.827Z,94588.47
2023-04-06T17:00:18.059Z,94594.28
2023-04-06T17:02:47.789Z,94579.41
2023-04-06T17:05:14.641Z,94592.44
2023-04-06T17:07:41.305Z,94582.06
2023-04-06T17:10:08.522Z,94589.22
2023-04-06T17:12:35.260Z,94601.09
2023-04-06T17:15:02.129Z,94596.69
2023-04-06T17:17:29.175Z,94609.06
2023-04-06T17:19:56.681Z,94600.56
2023-04-06T17:22:23.829Z,94614.03
2023-04-06T17:24:50.856Z,94607.38
2023-04-06T17:27:23.100Z,94595.63
2023-04-06T17:29:49.900Z,94627.25
2023-04-06T17:32:16.687Z,94618.72
2023-04-06T17:34:43.492Z,94623.63
2023-04-06T17:37:10.676Z,94634.72
2023-04-06T17:39:37.275Z,94625.78
2023-04-06T17:42:04.950Z,94640.94
2023-04-06T17:44:32.002Z,94646.09
2023-04-06T17:46:58.820Z,94636.09
2023-04-06T17:49:25.921Z,94640.84
2023-04-06T17:51:52.649Z,94642.38
2023-04-06T17:54:19.381Z,94633.88
2023-04-06T17:56:49.248Z,94620.81
2023-04-06T17:59:16.238Z,94614.03
2023-04-06T18:01:42.959Z,94643.72
2023-04-06T18:04:09.754Z,94644.72
2023-04-06T18:06:36.965Z,94654.59
2023-04-06T18:09:04.469Z,94657.66
2023-04-06T18:11:32.782Z,94649.72
2023-04-06T18:13:59.775Z,94659.69
2023-04-06T18:16:26.851Z,94681.78
2023-04-06T18:18:55.699Z,94672.53
2023-04-06T18:21:22.395Z,94663.28
2023-04-06T18:23:49.579Z,94688.88
2023-04-06T18:26:18.678Z,94683.50
2023-04-06T18:28:46.691Z,94682.28
2023-04-06T18:31:13.984Z,94676.47
2023-04-06T18:33:40.898Z,94676.69
2023-04-06T18:36:07.792Z,94676.06
2023-04-06T18:38:34.488Z,94685.25
2023-04-06T18:41:01.429Z,94690.47
2023-04-06T18:43:28.583Z,94694.03
2023-04-06T18:45:55.604Z,94684.06
2023-04-06T18:48:22.721Z,94690.47
2023-04-06T18:50:57.720Z,94703.19
2023-04-06T18:53:24.903Z,94696.53
2023-04-06T18:55:51.727Z,94698.47
2023-04-06T18:58:18.334Z,94699.75
2023-04-06T19:00:45.505Z,94706.22
2023-04-06T19:03:12.359Z,94704.38
2023-04-06T19:05:41.902Z,94713.06
2023-04-06T19:08:09.124Z,94703.09
2023-04-06T19:10:37.480Z,94711.25
2023-04-06T19:13:04.878Z,94706.97
2023-04-06T19:15:31.944Z,94707.13
2023-04-06T19:17:58.975Z,94710.94
2023-04-06T19:20:25.856Z,94709.47
2023-04-06T19:22:52.544Z,94709.69
2023-04-06T19:25:19.276Z,94712.88
2023-04-06T19:27:45.892Z,94705.91
2023-04-06T19:30:12.755Z,94709.13
2023-04-06T19:32:40.301Z,94716.66
2023-04-06T19:35:08.167Z,94715.16
2023-04-06T19:37:36.320Z,94712.59
2023-04-06T19:40:07.605Z,94717.69
2023-04-06T19:42:34.760Z,94714.66
2023-04-06T19:45:01.617Z,94724.25
2023-04-06T19:47:28.251Z,94703.25
2023-04-06T19:49:54.859Z,94719.81
2023-04-06T19:52:22.734Z,94708.94
2023-04-06T19:54:49.593Z,94699.06
2023-04-06T19:57:16.301Z,94714.38
2023-04-06T19:59:43.195Z,94716.56
2023-04-06T20:02:09.983Z,94707.81
2023-04-06T20:04:36.695Z,94714.97
2023-04-06T20:07:03.629Z,94723.06
2023-04-06T20:09:30.482Z,94719.69
2023-04-06T20:11:57.148Z,94702.88
2023-04-06T20:14:24.259Z,94714.09
2023-04-06T20:16:52.205Z,94708.25
2023-04-06T20:19:19.237Z,94723.19
2023-04-06T20:21:46.690Z,94721.63
2023-04-06T20:24:13.421Z,94729.25
2023-04-06T20:26:40.396Z,94734.53
2023-04-06T20:29:07.303Z,94735.53
2023-04-06T20:31:34.149Z,94735.91
2023-04-06T20:34:01.613Z,94732.03
2023-04-06T20:36:31.121Z,94729.34
2023-04-06T20:38:57.918Z,94741.41
2023-04-06T20:41:25.289Z,94746.91
2023-04-06T20:43:51.984Z,94740.84
2023-04-06T20:46:18.852Z,94741.06
2023-04-06T20:48:45.555Z,94735.75
2023-04-06T20:51:24.750Z,94749.56
2023-04-06T20:53:53.026Z,94748.38
2023-04-06T20:56:21.901Z,94747.31
2023-04-06T20:58:49.177Z,94743.53
2023-04-06T21:01:16.877Z,94747.75
2023-04-06T21:03:45.073Z,94744.19
2023-04-06T21:06:12.286Z,94746.38
2023-04-06T21:08:38.965Z,94745.63
2023-04-06T21:11:06.407Z,94743.91
2023-04-06T21:13:34.037Z,94750.03
2023-04-06T21:16:01.791Z,94748.31
2023-04-06T21:18:30.713Z,94748.41
2023-04-06T21:20:57.468Z,94749.84
2023-04-06T21:23:24.338Z,94749.16
2023-04-06T21:25:52.080Z,94742.19
2023-04-06T21:28:19.258Z,94751.22
2023-04-06T21:30:45.982Z,94740.00
2023-04-06T21:33:12.701Z,94751.22
2023-04-06T21:35:40.515Z,94749.56
2023-04-06T21:38:08.125Z,94746.50
2023-04-06T21:40:35.528Z,94747.66
2023-04-06T21:43:02.410Z,94733.97
2023-04-06T21:45:29.130Z,94748.59
2023-04-06T21:47:55.816Z,94749.34
2023-04-06T21:50:22.610Z,94746.66
2023-04-06T21:52:49.221Z,94727.41
2023-04-06T21:55:15.923Z,94739.47
2023-04-06T21:57:44.514Z,94733.53
2023-04-06T22:00:12.110Z,94742.03
2023-04-06T22:02:40.895Z,94737.34
2023-04-06T22:05:08.653Z,94737.75
2023-04-06T22:07:35.774Z,94740.66
2023-04-06T22:10:02.652Z,94736.75
2023-04-06T22:12:29.454Z,94731.50
2023-04-06T22:14:56.217Z,94744.00
2023-04-06T22:17:22.987Z,94741.16
2023-04-06T22:19:49.723Z,94731.25
2023-04-06T22:22:16.453Z,94718.66
2023-04-06T22:24:43.129Z,94733.50
2023-04-06T22:27:09.968Z,94734.84
2023-04-06T22:29:36.717Z,94735.31
2023-04-06T22:32:03.482Z,94715.78
2023-04-06T22:34:30.766Z,94734.50
2023-04-06T22:36:57.578Z,94727.69
2023-04-06T22:39:24.226Z,94726.69
2023-04-06T22:41:51.039Z,94728.78
2023-04-06T22:44:17.896Z,94730.38
2023-04-06T22:46:44.751Z,94726.63
2023-04-06T22:49:11.462Z,94731.63
2023-04-06T22:51:41.138Z,94735.09
2023-04-06T22:54:09.344Z,94735.94
2023-04-06T22:56:36.208Z,94724.22
2023-04-06T22:59:03.330Z,94739.97
2023-04-06T23:01:30.020Z,94727.72
2023-04-06T23:03:57.227Z,94740.44
2023-04-06T23:06:24.009Z,94711.28
2023-04-06T23:08:50.963Z,94722.97
2023-04-06T23:11:17.534Z,94705.81
2023-04-06T23:13:44.476Z,94714.22
2023-04-06T23:16:11.507Z,94709.34
2023-04-06T23:18:38.218Z,94711.06
2023-04-06T23:21:08.271Z,94714.16
2023-04-06T23:23:35.182Z,94706.59
2023-04-06T23:26:01.793Z,94715.78
2023-04-06T23:28:28.543Z,94712.84
2023-04-06T23:30:55.228Z,94713.25
2023-04-06T23:33:21.840Z,94704.50
2023-04-06T23:35:50.059Z,94706.22
2023-04-06T23:38:17.241Z,94706.47
2023-04-06T23:40:43.847Z,94707.34
2023-04-06T23:43:10.564Z,94694.81
2023-04-06T23:45:42.261Z,94711.47
2023-04-06T23:48:10.004Z,94719.28
2023-04-06T23:50:36.950Z,94706.97
2023-04-06T23:53:04.555Z,94705.75
2023-04-06T23:55:31.696Z,94712.94
2023-04-06T23:57:58.686Z,94705.31
